Ashtabula, Ohio
Current Conditions -  °F | °C
As of 4:53 PM on Friday 28 Nov 2014 (Local Time) from KHZY Reporting Station
Overcast Overcast  
Wind Chill: 19°   Ceiling: 3500
Heat Index: 25°   Visibility: 10mi
Dew Point: 14°   Wind: 5mph
Humidity: 63%   Direction: 190°S
Pressure: 30.23"   Gusts: NA
Location:  41.89°N, 80.79°W
Report Text: KHZY 282153Z AUTO 19004KT 10SM OVC035 M04/M10 A3023 RMK AO2 SLP249 T10391100
Loading
Personal Weather Stations






























Interactive Weather Map New forecast layout! Learn more

10-Day Weather Forecast

Advertisements
Track Severe Weather on mobile